createdAt,value
2018-06-27T00:00:25.060Z,13.90
2018-06-27T00:02:52.642Z,13.90
2018-06-27T00:05:20.278Z,13.80
2018-06-27T00:07:47.917Z,13.80
2018-06-27T00:10:15.566Z,13.80
2018-06-27T00:12:43.146Z,13.70
2018-06-27T00:15:10.791Z,13.80
2018-06-27T00:17:38.368Z,13.80
2018-06-27T00:20:06.298Z,13.80
2018-06-27T00:22:33.921Z,13.80
2018-06-27T00:25:01.521Z,13.80
2018-06-27T00:27:29.273Z,13.70
2018-06-27T00:29:56.989Z,13.70
2018-06-27T00:32:24.661Z,13.60
2018-06-27T00:34:52.265Z,13.60
2018-06-27T00:37:20.038Z,13.50
2018-06-27T00:39:47.642Z,13.40
2018-06-27T00:42:15.247Z,13.40
2018-06-27T00:44:42.852Z,13.40
2018-06-27T00:47:10.438Z,13.40
2018-06-27T00:49:38.023Z,13.40
2018-06-27T00:52:05.646Z,13.40
2018-06-27T00:54:33.226Z,13.40
2018-06-27T00:57:01.002Z,13.30
2018-06-27T00:59:28.592Z,13.30
2018-06-27T01:01:56.202Z,13.30
2018-06-27T01:04:23.942Z,13.40
2018-06-27T01:06:51.542Z,13.50
2018-06-27T01:09:19.222Z,13.40
2018-06-27T01:11:47.029Z,13.40
2018-06-27T01:14:14.578Z,13.40
2018-06-27T01:16:42.190Z,13.40
2018-06-27T01:19:09.824Z,13.30
2018-06-27T01:21:37.462Z,13.30
2018-06-27T01:24:05.081Z,13.30
2018-06-27T01:26:32.698Z,13.30
2018-06-27T01:29:00.279Z,13.20
2018-06-27T01:31:27.900Z,13.20
2018-06-27T01:33:55.785Z,13.20
2018-06-27T01:36:23.399Z,13.10
2018-06-27T01:38:57.769Z,13.10
2018-06-27T01:41:25.373Z,13.10
2018-06-27T01:43:53.088Z,13.10
2018-06-27T01:46:20.981Z,13.10
2018-06-27T01:48:48.545Z,13.00
2018-06-27T01:51:16.444Z,12.90
2018-06-27T01:53:44.026Z,12.80
2018-06-27T01:56:11.698Z,12.80
2018-06-27T01:58:39.302Z,12.90
2018-06-27T02:01:06.967Z,12.80
2018-06-27T02:03:34.712Z,12.80
2018-06-27T02:06:02.337Z,12.90
2018-06-27T02:08:29.921Z,12.80
2018-06-27T02:10:57.529Z,12.80
2018-06-27T02:13:25.156Z,12.80
2018-06-27T02:15:58.346Z,12.80
2018-06-27T02:18:25.957Z,12.60
2018-06-27T02:20:54.008Z,12.50
2018-06-27T02:23:21.679Z,12.50
2018-06-27T02:25:49.273Z,12.50
2018-06-27T02:28:16.889Z,12.50
2018-06-27T02:30:44.765Z,12.50
2018-06-27T02:33:17.976Z,12.50
2018-06-27T02:35:45.622Z,12.40
2018-06-27T02:38:13.334Z,12.40
2018-06-27T02:40:40.978Z,12.40
2018-06-27T02:43:08.678Z,12.30
2018-06-27T02:45:36.394Z,12.40
2018-06-27T02:48:04.070Z,12.40
2018-06-27T02:50:31.667Z,12.30
2018-06-27T02:52:59.282Z,12.30
2018-06-27T02:55:26.918Z,12.30
2018-06-27T02:57:54.589Z,12.20
2018-06-27T03:00:22.175Z,12.20
2018-06-27T03:02:49.781Z,12.20
2018-06-27T03:05:17.378Z,12.10
2018-06-27T03:07:44.965Z,12.10
2018-06-27T03:10:12.587Z,12.10
2018-06-27T03:12:40.189Z,12.20
2018-06-27T03:15:08.864Z,12.10
2018-06-27T03:17:36.473Z,12.10
2018-06-27T03:20:04.198Z,12.10
2018-06-27T03:22:31.844Z,12.10
2018-06-27T03:24:59.426Z,12.20
2018-06-27T03:27:27.117Z,12.10
2018-06-27T03:29:54.786Z,12.10
2018-06-27T03:32:22.457Z,12.00
2018-06-27T03:34:50.309Z,12.10
2018-06-27T03:37:17.927Z,12.10
2018-06-27T03:39:45.501Z,12.10
2018-06-27T03:42:13.150Z,12.10
2018-06-27T03:44:40.771Z,12.00
2018-06-27T03:47:09.678Z,12.00
2018-06-27T03:49:37.495Z,12.00
2018-06-27T03:52:05.185Z,11.90
2018-06-27T03:54:32.785Z,11.90
2018-06-27T03:57:00.402Z,11.90
2018-06-27T03:59:27.978Z,11.90
2018-06-27T04:01:55.554Z,11.90
2018-06-27T04:04:23.162Z,12.00
2018-06-27T04:06:50.733Z,12.10
2018-06-27T04:09:18.358Z,11.90
2018-06-27T04:11:45.969Z,11.90
2018-06-27T04:14:13.625Z,11.90
2018-06-27T04:16:41.369Z,12.00
2018-06-27T04:19:08.971Z,12.00
2018-06-27T04:21:36.622Z,12.00
2018-06-27T04:24:04.357Z,12.00
2018-06-27T04:26:31.921Z,12.10
2018-06-27T04:28:59.681Z,12.10
2018-06-27T04:31:27.286Z,12.20
2018-06-27T04:33:54.945Z,12.20
2018-06-27T04:36:22.533Z,12.30
2018-06-27T04:38:50.365Z,12.30
2018-06-27T04:41:17.952Z,12.50
2018-06-27T04:43:45.733Z,12.50
2018-06-27T04:46:13.317Z,12.60
2018-06-27T04:48:40.946Z,12.70
2018-06-27T04:51:08.523Z,12.60
2018-06-27T04:53:36.151Z,12.60
2018-06-27T04:58:29.024Z,12.70
2018-06-27T05:03:24.860Z,12.90
2018-06-27T05:05:52.473Z,13.00
2018-06-27T05:08:20.069Z,13.10
2018-06-27T05:10:47.642Z,13.10
2018-06-27T05:13:15.303Z,13.20
2018-06-27T05:15:42.903Z,13.40
2018-06-27T05:18:10.594Z,13.40
2018-06-27T05:20:38.487Z,13.50
2018-06-27T05:23:06.093Z,13.80
2018-06-27T05:25:33.833Z,13.90
2018-06-27T05:28:01.425Z,14.00
2018-06-27T05:30:29.031Z,14.10
2018-06-27T05:32:56.626Z,14.20
2018-06-27T05:35:24.488Z,14.30
2018-06-27T05:37:52.317Z,14.40
2018-06-27T05:40:20.017Z,14.50
2018-06-27T05:42:47.770Z,14.60
2018-06-27T05:45:15.422Z,14.70
2018-06-27T05:47:43.010Z,14.70
2018-06-27T05:50:10.679Z,14.90
2018-06-27T05:52:38.584Z,15.10
2018-06-27T05:55:08.401Z,15.10
2018-06-27T05:57:37.854Z,15.10
2018-06-27T06:00:06.000Z,15.30
2018-06-27T06:02:33.622Z,15.40
2018-06-27T06:05:01.270Z,15.50
2018-06-27T06:07:28.917Z,15.50
2018-06-27T06:09:56.802Z,15.50
2018-06-27T06:12:24.382Z,15.60
2018-06-27T06:14:52.241Z,15.60
2018-06-27T06:17:20.053Z,15.60
2018-06-27T06:19:47.676Z,15.80
2018-06-27T06:22:15.330Z,15.80
2018-06-27T06:24:44.039Z,15.90
2018-06-27T06:27:13.037Z,16.10
2018-06-27T06:29:41.017Z,16.10
2018-06-27T06:32:08.701Z,16.10
2018-06-27T06:34:36.386Z,16.20
2018-06-27T06:37:04.305Z,16.30
2018-06-27T06:39:32.014Z,16.40
2018-06-27T06:41:59.590Z,16.60
2018-06-27T06:44:27.205Z,16.60
2018-06-27T06:46:54.812Z,16.60
2018-06-27T06:49:22.434Z,16.80
2018-06-27T06:51:50.097Z,16.80
2018-06-27T06:54:17.731Z,16.90
2018-06-27T06:56:51.372Z,17.00
2018-06-27T06:59:19.762Z,17.20
2018-06-27T07:01:47.961Z,17.30
2018-06-27T07:04:15.725Z,17.20
2018-06-27T07:06:43.277Z,17.30
2018-06-27T07:09:12.498Z,17.50
2018-06-27T07:11:40.488Z,17.70
2018-06-27T07:14:08.350Z,17.80
2018-06-27T07:16:36.097Z,17.90
2018-06-27T07:19:03.894Z,17.90
2018-06-27T07:21:31.592Z,18.00
2018-06-27T07:23:59.169Z,18.10
2018-06-27T07:26:27.277Z,18.20
2018-06-27T07:28:54.890Z,18.10
2018-06-27T07:31:22.792Z,18.20
2018-06-27T07:33:50.414Z,18.30
2018-06-27T07:36:18.065Z,18.40
2018-06-27T07:38:45.650Z,18.60
2018-06-27T07:41:13.289Z,18.60
2018-06-27T07:43:41.042Z,18.60
2018-06-27T07:46:08.718Z,18.60
2018-06-27T07:48:36.454Z,18.80
2018-06-27T07:51:04.158Z,19.00
2018-06-27T07:53:31.798Z,19.10
2018-06-27T07:55:59.393Z,19.10
2018-06-27T07:58:26.991Z,19.20
2018-06-27T08:00:54.592Z,19.20
2018-06-27T08:03:22.334Z,19.30
2018-06-27T08:05:49.981Z,19.30
2018-06-27T08:08:17.634Z,19.30
2018-06-27T08:10:45.243Z,19.40
2018-06-27T08:13:12.877Z,19.50
2018-06-27T08:15:40.557Z,19.60
2018-06-27T08:18:08.167Z,19.80
2018-06-27T08:20:36.710Z,20.10
2018-06-27T08:23:04.490Z,20.20
2018-06-27T08:25:32.069Z,20.20
2018-06-27T08:27:59.666Z,20.20
2018-06-27T08:30:27.272Z,20.40
2018-06-27T08:32:54.960Z,20.40
2018-06-27T08:35:22.595Z,20.50
2018-06-27T08:37:50.193Z,20.60
2018-06-27T08:40:17.797Z,20.90
2018-06-27T08:42:45.401Z,20.90
2018-06-27T08:45:13.429Z,21.00
2018-06-27T08:47:41.002Z,21.20
2018-06-27T08:50:08.626Z,21.30
2018-06-27T08:52:36.242Z,21.30
2018-06-27T08:55:03.883Z,21.40
2018-06-27T08:57:31.580Z,21.30
2018-06-27T08:59:59.167Z,21.30
2018-06-27T09:04:54.701Z,21.30
2018-06-27T09:07:26.222Z,21.50
2018-06-27T09:09:53.801Z,21.60
2018-06-27T09:12:21.563Z,21.50
2018-06-27T09:14:49.192Z,21.50
2018-06-27T09:17:16.822Z,21.70
2018-06-27T09:19:44.437Z,22.00
2018-06-27T09:22:12.079Z,22.10
2018-06-27T09:24:40.130Z,22.20
2018-06-27T09:27:07.728Z,22.30
2018-06-27T09:29:35.378Z,22.50
2018-06-27T09:32:03.055Z,22.50
2018-06-27T09:34:30.681Z,22.60
2018-06-27T09:36:58.306Z,22.80
2018-06-27T09:39:26.383Z,23.00
2018-06-27T09:41:54.065Z,22.90
2018-06-27T09:44:21.693Z,22.90
2018-06-27T09:46:49.918Z,23.10
2018-06-27T09:49:17.565Z,22.90
2018-06-27T09:54:13.546Z,22.90
2018-06-27T09:56:41.287Z,23.10
2018-06-27T09:59:09.620Z,23.30
2018-06-27T10:01:37.309Z,23.40
2018-06-27T10:04:05.433Z,23.60
2018-06-27T10:06:33.422Z,23.70
2018-06-27T10:09:00.985Z,23.80
2018-06-27T10:11:28.602Z,24.00
2018-06-27T10:13:56.190Z,24.00
2018-06-27T10:16:23.845Z,23.70
2018-06-27T10:18:51.793Z,23.90
2018-06-27T10:21:19.664Z,24.10
2018-06-27T10:26:14.813Z,24.50
2018-06-27T10:28:42.511Z,24.60
2018-06-27T10:31:10.755Z,24.80
2018-06-27T10:33:42.141Z,24.70
2018-06-27T10:36:09.720Z,24.70
2018-06-27T10:38:37.422Z,24.30
2018-06-27T10:41:05.049Z,24.50
2018-06-27T10:43:32.649Z,24.70
2018-06-27T10:46:00.522Z,25.00
2018-06-27T10:48:28.213Z,25.30
2018-06-27T10:50:55.863Z,25.50
2018-06-27T10:53:23.489Z,25.70
2018-06-27T10:55:51.138Z,25.80
2018-06-27T10:58:18.742Z,25.90
2018-06-27T11:00:46.365Z,26.00
2018-06-27T11:03:14.005Z,26.20
2018-06-27T11:05:42.268Z,26.10
2018-06-27T11:08:09.887Z,26.10
2018-06-27T11:10:37.499Z,26.10
2018-06-27T11:13:05.142Z,26.10
2018-06-27T11:15:32.765Z,26.20
2018-06-27T11:18:00.434Z,26.20
2018-06-27T11:20:28.052Z,26.40
2018-06-27T11:22:56.528Z,26.50
2018-06-27T11:25:24.762Z,26.60
2018-06-27T11:27:52.414Z,26.60
2018-06-27T11:30:20.642Z,26.70
2018-06-27T11:32:48.383Z,26.90
2018-06-27T11:35:16.281Z,26.90
2018-06-27T11:37:44.331Z,27.00
2018-06-27T11:40:11.970Z,26.80
2018-06-27T11:42:39.636Z,27.00
2018-06-27T11:45:08.567Z,27.00
2018-06-27T11:47:36.197Z,26.80
2018-06-27T11:50:04.120Z,26.70
2018-06-27T11:52:32.490Z,26.30
2018-06-27T11:55:05.714Z,26.00
2018-06-27T11:57:33.387Z,26.40
2018-06-27T12:00:01.002Z,26.70
2018-06-27T12:02:31.655Z,27.00
2018-06-27T12:04:59.246Z,27.20
2018-06-27T12:07:26.841Z,27.50
2018-06-27T12:09:54.675Z,27.80
2018-06-27T12:12:22.906Z,28.00
2018-06-27T12:14:50.620Z,28.10
2018-06-27T12:17:18.198Z,28.70
2018-06-27T12:19:46.003Z,29.20
2018-06-27T12:22:13.677Z,29.50
2018-06-27T12:24:41.366Z,29.50
2018-06-27T12:27:09.270Z,29.20
2018-06-27T12:29:36.870Z,28.60
2018-06-27T12:32:04.500Z,28.20
2018-06-27T12:34:32.194Z,28.80
2018-06-27T12:36:59.985Z,29.10
2018-06-27T12:39:27.609Z,28.60
2018-06-27T12:41:55.655Z,27.90
2018-06-27T12:44:23.894Z,27.80
2018-06-27T12:46:51.509Z,27.50
2018-06-27T12:49:19.164Z,27.00
2018-06-27T12:51:46.785Z,27.10
2018-06-27T12:54:14.382Z,27.60
2018-06-27T12:56:42.264Z,27.90
2018-06-27T12:59:11.068Z,27.90
2018-06-27T13:01:39.006Z,27.80
2018-06-27T13:04:06.829Z,27.90
2018-06-27T13:06:34.710Z,27.80
2018-06-27T13:09:03.583Z,27.60
2018-06-27T13:11:31.135Z,27.70
2018-06-27T13:13:58.989Z,27.80
2018-06-27T13:16:26.634Z,28.60
2018-06-27T13:18:54.566Z,29.50
2018-06-27T13:21:22.197Z,30.30
2018-06-27T13:23:50.773Z,30.40
2018-06-27T13:26:18.682Z,30.80
2018-06-27T13:28:46.370Z,31.60
2018-06-27T13:31:14.257Z,32.10
2018-06-27T13:33:41.873Z,32.20
2018-06-27T13:36:09.498Z,31.80
2018-06-27T13:38:37.725Z,30.90
2018-06-27T13:41:05.467Z,30.30
2018-06-27T13:43:33.118Z,29.70
2018-06-27T13:46:00.874Z,29.60
2018-06-27T13:48:28.441Z,30.60
2018-06-27T13:50:56.958Z,31.40
2018-06-27T13:53:24.545Z,31.60
2018-06-27T13:55:52.166Z,31.70
2018-06-27T13:58:19.742Z,32.10
2018-06-27T14:00:48.458Z,32.90
2018-06-27T14:03:16.054Z,33.40
2018-06-27T14:05:43.678Z,34.50
2018-06-27T14:08:11.282Z,33.90
2018-06-27T14:10:38.906Z,33.90
2018-06-27T14:13:06.495Z,35.60
2018-06-27T14:15:34.238Z,36.10
2018-06-27T14:18:01.965Z,36.70
2018-06-27T14:20:29.585Z,35.90
2018-06-27T14:22:57.326Z,36.50
2018-06-27T14:25:25.005Z,37.30
2018-06-27T14:27:52.844Z,37.40
2018-06-27T14:30:20.550Z,37.20
2018-06-27T14:32:48.127Z,37.50
2018-06-27T14:35:15.770Z,38.10
2018-06-27T14:37:43.356Z,39.00
2018-06-27T14:40:11.034Z,39.40
2018-06-27T14:42:38.670Z,39.70
2018-06-27T14:45:06.352Z,40.70
2018-06-27T14:47:34.690Z,41.60
2018-06-27T14:50:02.685Z,41.00
2018-06-27T14:52:30.662Z,40.70
2018-06-27T14:54:58.286Z,41.40
2018-06-27T14:57:25.890Z,41.80
2018-06-27T14:59:53.526Z,41.20
2018-06-27T15:02:21.718Z,40.10
2018-06-27T15:04:49.469Z,39.80
2018-06-27T15:07:17.073Z,38.90
2018-06-27T15:09:45.810Z,37.90
2018-06-27T15:12:13.402Z,36.10
2018-06-27T15:14:41.018Z,34.70
2018-06-27T15:17:09.106Z,34.80
2018-06-27T15:19:36.694Z,35.60
2018-06-27T15:22:04.618Z,36.70
2018-06-27T15:24:32.269Z,38.20
2018-06-27T15:26:59.865Z,39.70
2018-06-27T15:29:28.035Z,40.20
2018-06-27T15:31:55.671Z,39.90
2018-06-27T15:34:23.274Z,38.20
2018-06-27T15:36:51.060Z,36.90
2018-06-27T15:39:19.598Z,35.10
2018-06-27T15:41:47.322Z,33.60
2018-06-27T15:44:14.925Z,33.60
2018-06-27T15:46:42.562Z,34.70
2018-06-27T15:49:10.309Z,34.80
2018-06-27T15:51:38.398Z,35.60
2018-06-27T15:54:06.195Z,35.70
2018-06-27T15:56:33.869Z,36.50
2018-06-27T15:59:01.514Z,37.60
2018-06-27T16:01:29.217Z,38.40
2018-06-27T16:03:56.872Z,38.40
2018-06-27T16:06:24.509Z,38.80
2018-06-27T16:08:52.085Z,39.50
2018-06-27T16:11:21.719Z,40.40
2018-06-27T16:13:52.112Z,40.20
2018-06-27T16:16:20.357Z,40.00
2018-06-27T16:18:47.930Z,39.60
2018-06-27T16:21:15.505Z,39.00
2018-06-27T16:23:43.109Z,39.50
2018-06-27T16:26:10.726Z,38.90
2018-06-27T16:28:38.310Z,38.40
2018-06-27T16:31:06.084Z,38.40
2018-06-27T16:33:33.850Z,38.10
2018-06-27T16:36:01.498Z,37.00
2018-06-27T16:38:29.218Z,36.40
2018-06-27T16:40:56.875Z,35.60
2018-06-27T16:43:24.538Z,34.70
2018-06-27T16:45:52.346Z,34.50
2018-06-27T16:48:20.121Z,34.30
2018-06-27T16:50:52.935Z,34.10
2018-06-27T16:53:20.770Z,33.10
2018-06-27T16:55:48.405Z,32.60
2018-06-27T16:58:16.006Z,31.80
2018-06-27T17:00:43.623Z,31.40
2018-06-27T17:03:11.285Z,30.70
2018-06-27T17:05:38.870Z,30.30
2018-06-27T17:08:06.645Z,29.90
2018-06-27T17:10:34.313Z,29.80
2018-06-27T17:13:02.054Z,29.80
2018-06-27T17:15:29.757Z,29.70
2018-06-27T17:17:57.374Z,29.80
2018-06-27T17:20:28.917Z,29.90
2018-06-27T17:22:56.890Z,29.70
2018-06-27T17:25:24.481Z,29.70
2018-06-27T17:27:52.178Z,29.60
2018-06-27T17:30:19.777Z,29.30
2018-06-27T17:32:47.654Z,28.90
2018-06-27T17:38:07.616Z,28.50
2018-06-27T17:40:35.212Z,28.20
2018-06-27T17:43:02.911Z,28.00
2018-06-27T17:45:30.685Z,27.70
2018-06-27T17:47:58.985Z,27.40
2018-06-27T17:50:26.585Z,27.30
2018-06-27T17:52:54.285Z,27.00
2018-06-27T17:55:21.916Z,26.80
2018-06-27T17:57:49.530Z,26.60
2018-06-27T18:00:17.350Z,26.60
2018-06-27T18:02:44.938Z,26.50
2018-06-27T18:05:12.538Z,26.60
2018-06-27T18:07:40.266Z,26.90
2018-06-27T18:10:08.023Z,27.20
2018-06-27T18:12:35.625Z,27.00
2018-06-27T18:15:04.056Z,26.60
2018-06-27T18:17:32.046Z,26.20
2018-06-27T18:19:59.626Z,26.10
2018-06-27T18:22:27.273Z,26.00
2018-06-27T18:24:54.911Z,25.90
2018-06-27T18:27:22.927Z,25.90
2018-06-27T18:29:50.622Z,26.00
2018-06-27T18:32:18.437Z,26.20
2018-06-27T18:34:46.022Z,26.10
2018-06-27T18:37:13.624Z,26.00
2018-06-27T18:39:41.897Z,25.80
2018-06-27T18:42:09.449Z,25.80
2018-06-27T18:44:37.033Z,25.50
2018-06-27T18:47:04.897Z,25.30
2018-06-27T18:49:32.513Z,25.10
2018-06-27T18:52:00.074Z,25.00
2018-06-27T18:54:28.028Z,24.90
2018-06-27T18:56:55.583Z,24.70
2018-06-27T18:59:23.197Z,24.60
2018-06-27T19:01:50.909Z,24.40
2018-06-27T19:04:18.489Z,24.40
2018-06-27T19:06:46.013Z,24.30
2018-06-27T19:09:13.598Z,24.20
2018-06-27T19:11:42.237Z,24.10
2018-06-27T19:14:09.833Z,24.10
2018-06-27T19:16:37.443Z,24.10
2018-06-27T19:19:05.193Z,24.00
2018-06-27T19:21:32.714Z,24.00
2018-06-27T19:24:00.318Z,23.90
2018-06-27T19:26:27.885Z,23.80
2018-06-27T19:28:55.475Z,23.70
2018-06-27T19:31:23.202Z,23.60
2018-06-27T19:33:50.855Z,23.60
2018-06-27T19:36:18.377Z,23.50
2018-06-27T19:38:50.890Z,23.50
2018-06-27T19:41:18.641Z,23.40
2018-06-27T19:43:46.126Z,23.20
2018-06-27T19:46:13.665Z,23.10
2018-06-27T19:48:43.173Z,23.10
2018-06-27T19:51:10.745Z,23.00
2018-06-27T19:53:40.402Z,22.90
2018-06-27T19:56:08.030Z,22.90
2018-06-27T19:58:39.485Z,22.80
2018-06-27T20:01:07.134Z,22.70
2018-06-27T20:03:35.022Z,22.60
2018-06-27T20:06:03.592Z,22.40
2018-06-27T20:08:31.333Z,22.40
2018-06-27T20:10:59.149Z,22.40
2018-06-27T20:13:26.811Z,22.30
2018-06-27T20:15:54.685Z,22.20
2018-06-27T20:18:22.633Z,22.10
2018-06-27T20:20:50.185Z,22.00
2018-06-27T20:23:18.458Z,22.00
2018-06-27T20:25:48.519Z,21.90
2018-06-27T20:28:16.102Z,21.90
2018-06-27T20:30:54.733Z,21.80
2018-06-27T20:33:22.598Z,21.70
2018-06-27T20:35:50.145Z,21.70
2018-06-27T20:40:46.597Z,21.60
2018-06-27T20:43:15.351Z,21.50
2018-06-27T20:48:11.638Z,21.50
2018-06-27T20:50:39.716Z,21.40
2018-06-27T20:53:07.322Z,21.40
2018-06-27T20:55:35.032Z,21.30
2018-06-27T20:58:02.568Z,21.30
2018-06-27T21:00:30.350Z,21.20
2018-06-27T21:02:57.925Z,21.20
2018-06-27T21:05:25.507Z,21.10
2018-06-27T21:07:53.143Z,21.10
2018-06-27T21:10:20.773Z,21.00
2018-06-27T21:12:48.346Z,20.90
2018-06-27T21:15:15.925Z,20.90
2018-06-27T21:18:14.731Z,20.80
2018-06-27T21:20:43.218Z,20.70
2018-06-27T21:23:10.782Z,20.70
2018-06-27T21:25:38.350Z,20.60
2018-06-27T21:28:06.325Z,20.60
2018-06-27T21:30:33.883Z,20.60
2018-06-27T21:33:01.531Z,20.60
2018-06-27T21:35:29.170Z,20.50
2018-06-27T21:37:56.842Z,20.50
2018-06-27T21:40:24.402Z,20.40
2018-06-27T21:42:51.972Z,20.40
2018-06-27T21:45:19.601Z,20.40
2018-06-27T21:47:47.110Z,20.20
2018-06-27T21:50:14.742Z,20.20
2018-06-27T21:52:42.274Z,20.10
2018-06-27T21:55:10.365Z,20.00
2018-06-27T21:57:37.981Z,20.00
2018-06-27T22:00:07.465Z,19.90
2018-06-27T22:02:35.020Z,19.90
2018-06-27T22:05:02.890Z,19.90
2018-06-27T22:07:30.573Z,19.80
2018-06-27T22:09:58.185Z,19.80
2018-06-27T22:12:25.754Z,19.70
2018-06-27T22:14:53.335Z,19.70
2018-06-27T22:17:20.926Z,19.60
2018-06-27T22:19:48.641Z,19.50
2018-06-27T22:22:16.274Z,19.50
2018-06-27T22:24:43.873Z,19.50
2018-06-27T22:27:11.422Z,19.50
2018-06-27T22:29:39.295Z,19.30
2018-06-27T22:32:06.925Z,19.30
2018-06-27T22:34:34.678Z,19.30
2018-06-27T22:37:02.261Z,19.20
2018-06-27T22:39:29.826Z,19.10
2018-06-27T22:41:57.390Z,19.10
2018-06-27T22:44:24.917Z,19.10
2018-06-27T22:46:52.539Z,19.00
2018-06-27T22:49:20.426Z,18.90
2018-06-27T22:51:47.995Z,18.80
2018-06-27T22:54:15.645Z,18.80
2018-06-27T22:56:43.199Z,18.70
2018-06-27T22:59:10.742Z,18.70
2018-06-27T23:01:38.309Z,18.70
2018-06-27T23:04:05.877Z,18.60
2018-06-27T23:06:33.458Z,18.60
2018-06-27T23:09:01.234Z,18.60
2018-06-27T23:11:28.789Z,18.50
2018-06-27T23:13:56.334Z,18.50
2018-06-27T23:16:23.934Z,18.50
2018-06-27T23:18:51.497Z,18.40
2018-06-27T23:21:19.073Z,18.40
2018-06-27T23:23:46.817Z,18.40
2018-06-27T23:26:14.386Z,18.30
2018-06-27T23:28:41.941Z,18.30
2018-06-27T23:31:09.530Z,18.10
2018-06-27T23:33:37.096Z,17.90
2018-06-27T23:36:04.714Z,17.70
2018-06-27T23:38:32.277Z,17.70
2018-06-27T23:40:59.938Z,17.60
2018-06-27T23:43:27.521Z,17.50
2018-06-27T23:45:59.046Z,17.50
2018-06-27T23:48:26.589Z,17.40
2018-06-27T23:50:54.562Z,17.40
2018-06-27T23:53:22.828Z,17.40
2018-06-27T23:55:50.374Z,17.40
2018-06-27T23:58:17.981Z,17.30
